createdAt,value
2018-10-18T00:01:34.685Z,100.00
2018-10-18T00:04:04.137Z,100.00
2018-10-18T00:06:33.398Z,100.00
2018-10-18T00:09:02.642Z,100.00
2018-10-18T00:11:32.011Z,100.00
2018-10-18T00:14:01.270Z,100.00
2018-10-18T00:16:30.504Z,100.00
2018-10-18T00:18:59.763Z,100.00
2018-10-18T00:21:30.157Z,100.00
2018-10-18T00:23:59.527Z,100.00
2018-10-18T00:26:28.842Z,100.00
2018-10-18T00:28:58.071Z,100.00
2018-10-18T00:31:27.778Z,100.00
2018-10-18T00:33:57.041Z,100.00
2018-10-18T00:36:26.274Z,100.00
2018-10-18T00:38:55.582Z,100.00
2018-10-18T00:41:24.854Z,100.00
2018-10-18T00:43:54.119Z,100.00
2018-10-18T00:46:24.020Z,100.00
2018-10-18T00:48:53.252Z,100.00
2018-10-18T00:51:22.524Z,100.00
2018-10-18T00:53:51.841Z,100.00
2018-10-18T00:56:21.719Z,100.00
2018-10-18T00:58:50.937Z,100.00
2018-10-18T01:01:20.721Z,100.00
2018-10-18T01:03:50.649Z,100.00
2018-10-18T01:06:19.937Z,100.00
2018-10-18T01:08:49.350Z,100.00
2018-10-18T01:11:19.452Z,100.00
2018-10-18T01:13:48.874Z,100.00
2018-10-18T01:16:18.101Z,100.00
2018-10-18T01:18:47.407Z,100.00
2018-10-18T01:21:16.676Z,100.00
2018-10-18T01:23:45.998Z,100.00
2018-10-18T01:26:15.301Z,100.00
2018-10-18T01:28:44.577Z,100.00
2018-10-18T01:31:13.807Z,100.00
2018-10-18T01:33:43.269Z,100.00
2018-10-18T01:36:12.639Z,100.00
2018-10-18T01:38:41.811Z,100.00
2018-10-18T01:41:11.077Z,100.00
2018-10-18T01:43:40.577Z,100.00
2018-10-18T01:46:09.869Z,100.00
2018-10-18T01:48:39.119Z,100.00
2018-10-18T01:51:08.486Z,100.00
2018-10-18T01:53:38.362Z,100.00
2018-10-18T01:56:07.618Z,100.00
2018-10-18T01:58:38.837Z,100.00
2018-10-18T02:01:08.079Z,100.00
2018-10-18T02:03:37.415Z,100.00
2018-10-18T02:06:07.492Z,100.00
2018-10-18T02:08:36.777Z,100.00
2018-10-18T02:11:06.621Z,100.00
2018-10-18T02:13:36.205Z,100.00
2018-10-18T02:16:08.113Z,100.00
2018-10-18T02:18:37.380Z,100.00
2018-10-18T02:21:06.697Z,100.00
2018-10-18T02:23:36.154Z,100.00
2018-10-18T02:26:06.344Z,100.00
2018-10-18T02:28:36.051Z,100.00
2018-10-18T02:31:05.535Z,100.00
2018-10-18T02:33:34.756Z,100.00
2018-10-18T02:36:04.053Z,100.00
2018-10-18T02:38:33.256Z,100.00
2018-10-18T02:41:03.579Z,100.00
2018-10-18T02:43:32.879Z,100.00
2018-10-18T02:46:02.108Z,100.00
2018-10-18T02:48:31.302Z,100.00
2018-10-18T02:51:00.574Z,100.00
2018-10-18T02:53:29.801Z,100.00
2018-10-18T02:55:59.045Z,100.00
2018-10-18T02:58:28.288Z,100.00
2018-10-18T03:00:57.537Z,100.00
2018-10-18T03:03:26.776Z,100.00
2018-10-18T03:05:56.019Z,100.00
2018-10-18T03:08:25.240Z,100.00
2018-10-18T03:10:54.463Z,100.00
2018-10-18T03:13:23.666Z,100.00
2018-10-18T03:15:52.904Z,100.00
2018-10-18T03:18:22.129Z,100.00
2018-10-18T03:20:51.941Z,100.00
2018-10-18T03:23:21.392Z,100.00
2018-10-18T03:25:50.598Z,100.00
2018-10-18T03:28:19.897Z,100.00
2018-10-18T03:30:49.285Z,100.00
2018-10-18T03:33:24.810Z,100.00
2018-10-18T03:35:54.204Z,100.00
2018-10-18T03:38:23.466Z,100.00
2018-10-18T03:40:52.685Z,100.00
2018-10-18T03:43:22.441Z,100.00
2018-10-18T03:45:51.848Z,100.00
2018-10-18T03:48:21.170Z,100.00
2018-10-18T03:50:50.404Z,100.00
2018-10-18T03:53:19.698Z,100.00
2018-10-18T03:55:48.965Z,100.00
2018-10-18T03:58:18.217Z,100.00
2018-10-18T04:00:48.512Z,100.00
2018-10-18T04:03:17.844Z,100.00
2018-10-18T04:05:47.026Z,100.00
2018-10-18T04:08:16.226Z,100.00
2018-10-18T04:10:45.562Z,100.00
2018-10-18T04:13:14.916Z,100.00
2018-10-18T04:15:44.066Z,100.00
2018-10-18T04:18:13.353Z,100.00
2018-10-18T04:20:42.555Z,100.00
2018-10-18T04:23:11.892Z,100.00
2018-10-18T04:25:41.216Z,100.00
2018-10-18T04:28:10.459Z,100.00
2018-10-18T04:30:39.684Z,100.00
2018-10-18T04:33:09.070Z,100.00
2018-10-18T04:35:38.282Z,100.00
2018-10-18T04:38:07.491Z,100.00
2018-10-18T04:40:36.709Z,100.00
2018-10-18T04:43:06.295Z,100.00
2018-10-18T04:45:36.488Z,100.00
2018-10-18T04:48:05.899Z,100.00
2018-10-18T04:50:35.012Z,100.00
2018-10-18T04:53:04.245Z,100.00
2018-10-18T04:55:33.442Z,100.00
2018-10-18T04:58:04.428Z,100.00
2018-10-18T05:00:33.713Z,100.00
2018-10-18T05:03:03.026Z,100.00
2018-10-18T05:05:56.037Z,100.00
2018-10-18T05:08:26.142Z,100.00
2018-10-18T05:10:55.746Z,100.00
2018-10-18T05:13:25.181Z,100.00
2018-10-18T05:15:54.409Z,100.00
2018-10-18T05:18:24.057Z,100.00
2018-10-18T05:20:53.440Z,100.00
2018-10-18T05:23:22.637Z,100.00
2018-10-18T05:25:52.221Z,100.00
2018-10-18T05:28:22.038Z,100.00
2018-10-18T05:30:51.276Z,100.00
2018-10-18T05:33:20.535Z,100.00
2018-10-18T05:35:50.787Z,100.00
2018-10-18T05:38:20.683Z,100.00
2018-10-18T05:40:49.912Z,100.00
2018-10-18T05:43:19.303Z,100.00
2018-10-18T05:45:48.528Z,100.00
2018-10-18T05:48:17.776Z,100.00
2018-10-18T05:50:47.050Z,100.00
2018-10-18T05:53:16.607Z,100.00
2018-10-18T05:55:45.797Z,100.00
2018-10-18T05:58:15.089Z,100.00
2018-10-18T06:00:45.129Z,100.00
2018-10-18T06:03:14.561Z,100.00
2018-10-18T06:05:44.039Z,100.00
2018-10-18T06:08:13.537Z,100.00
2018-10-18T06:10:54.481Z,100.00
2018-10-18T06:13:23.910Z,100.00
2018-10-18T06:15:53.255Z,100.00
2018-10-18T06:18:22.642Z,100.00
2018-10-18T06:20:51.906Z,100.00
2018-10-18T06:23:21.489Z,100.00
2018-10-18T06:25:50.717Z,100.00
2018-10-18T06:28:20.097Z,100.00
2018-10-18T06:30:50.474Z,100.00
2018-10-18T06:33:19.826Z,100.00
2018-10-18T06:35:49.140Z,100.00
2018-10-18T06:38:19.495Z,100.00
2018-10-18T06:40:49.396Z,100.00
2018-10-18T06:43:18.740Z,100.00
2018-10-18T06:45:47.991Z,100.00
2018-10-18T06:48:17.784Z,100.00
2018-10-18T06:50:47.104Z,100.00
2018-10-18T06:53:16.529Z,100.00
2018-10-18T06:55:46.210Z,100.00
2018-10-18T06:58:15.630Z,100.00
2018-10-18T07:00:44.919Z,100.00
2018-10-18T07:03:14.325Z,100.00
2018-10-18T07:05:43.602Z,100.00
2018-10-18T07:08:12.855Z,100.00
2018-10-18T07:10:42.240Z,100.00
2018-10-18T07:13:11.609Z,100.00
2018-10-18T07:15:40.982Z,100.00
2018-10-18T07:18:10.518Z,100.00
2018-10-18T07:20:39.705Z,100.00
2018-10-18T07:23:08.933Z,100.00
2018-10-18T07:25:38.340Z,100.00
2018-10-18T07:28:07.747Z,100.00
2018-10-18T07:30:37.644Z,100.00
2018-10-18T07:33:06.928Z,100.00
2018-10-18T07:35:36.345Z,100.00
2018-10-18T07:38:06.778Z,100.00
2018-10-18T07:40:36.054Z,100.00
2018-10-18T07:43:05.768Z,100.00
2018-10-18T07:45:35.076Z,100.00
2018-10-18T07:48:04.584Z,100.00
2018-10-18T07:50:34.082Z,100.00
2018-10-18T07:53:03.357Z,100.00
2018-10-18T07:55:33.483Z,100.00
2018-10-18T07:58:03.206Z,100.00
2018-10-18T08:00:32.552Z,100.00
2018-10-18T08:03:01.815Z,100.00
2018-10-18T08:05:31.104Z,100.00
2018-10-18T08:08:00.352Z,100.00
2018-10-18T08:10:34.891Z,100.00
2018-10-18T08:13:07.015Z,100.00
2018-10-18T08:15:36.301Z,100.00
2018-10-18T08:18:05.946Z,100.00
2018-10-18T08:20:35.205Z,100.00
2018-10-18T08:23:04.536Z,100.00
2018-10-18T08:25:34.118Z,100.00
2018-10-18T08:28:03.442Z,100.00
2018-10-18T08:30:32.843Z,100.00
2018-10-18T08:33:02.068Z,100.00
2018-10-18T08:35:32.657Z,100.00
2018-10-18T08:38:03.194Z,100.00
2018-10-18T08:40:33.562Z,100.00
2018-10-18T08:43:03.050Z,100.00
2018-10-18T08:45:32.381Z,100.00
2018-10-18T08:48:01.767Z,100.00
2018-10-18T08:50:31.153Z,100.00
2018-10-18T08:53:00.928Z,100.00
2018-10-18T08:55:30.214Z,100.00
2018-10-18T08:57:59.542Z,100.00
2018-10-18T09:00:28.854Z,100.00
2018-10-18T09:02:59.070Z,100.00
2018-10-18T09:05:28.323Z,100.00
2018-10-18T09:07:58.333Z,100.00
2018-10-18T09:10:27.621Z,100.00
2018-10-18T09:12:57.027Z,100.00
2018-10-18T09:15:26.233Z,100.00
2018-10-18T09:17:55.510Z,100.00
2018-10-18T09:20:24.908Z,100.00
2018-10-18T09:22:55.245Z,100.00
2018-10-18T09:25:24.566Z,100.00
2018-10-18T09:27:53.963Z,100.00
2018-10-18T09:30:23.577Z,100.00
2018-10-18T09:32:52.824Z,100.00
2018-10-18T09:35:22.100Z,100.00
2018-10-18T09:37:51.374Z,100.00
2018-10-18T09:40:22.205Z,100.00
2018-10-18T09:42:51.510Z,100.00
2018-10-18T09:45:20.783Z,100.00
2018-10-18T09:47:50.079Z,100.00
2018-10-18T09:50:19.351Z,100.00
2018-10-18T09:52:49.355Z,100.00
2018-10-18T09:55:18.803Z,100.00
2018-10-18T09:57:47.983Z,100.00
2018-10-18T10:00:22.641Z,100.00
2018-10-18T10:02:57.294Z,100.00
2018-10-18T10:05:26.665Z,100.00
2018-10-18T10:07:55.936Z,100.00
2018-10-18T10:10:25.239Z,100.00
2018-10-18T10:12:54.589Z,99.95
2018-10-18T10:15:23.856Z,100.00
2018-10-18T10:17:53.155Z,99.84
2018-10-18T10:20:22.540Z,99.05
2018-10-18T10:22:57.055Z,98.14
2018-10-18T10:25:26.859Z,96.47
2018-10-18T10:27:56.646Z,94.64
2018-10-18T10:30:26.358Z,95.46
2018-10-18T10:32:55.714Z,93.66
2018-10-18T10:35:24.918Z,93.54
2018-10-18T10:37:54.186Z,93.92
2018-10-18T10:40:24.430Z,91.55
2018-10-18T10:42:53.761Z,91.46
2018-10-18T10:45:23.121Z,90.75
2018-10-18T10:47:52.789Z,90.38
2018-10-18T10:50:22.059Z,89.61
2018-10-18T10:52:51.312Z,86.48
2018-10-18T10:55:20.815Z,87.85
2018-10-18T10:57:50.046Z,86.47
2018-10-18T11:01:28.682Z,87.15
2018-10-18T11:03:59.287Z,84.96
2018-10-18T11:06:28.594Z,81.94
2018-10-18T11:08:58.078Z,78.87
2018-10-18T11:11:27.254Z,74.20
2018-10-18T11:13:56.620Z,76.50
2018-10-18T11:16:25.873Z,75.51
2018-10-18T11:18:55.152Z,75.88
2018-10-18T11:21:24.500Z,76.29
2018-10-18T11:23:53.799Z,74.86
2018-10-18T11:26:23.289Z,73.94
2018-10-18T11:28:52.390Z,73.83
2018-10-18T11:31:21.691Z,71.30
2018-10-18T11:33:50.999Z,69.53
2018-10-18T11:36:20.305Z,73.10
2018-10-18T11:38:49.674Z,76.65
2018-10-18T11:41:18.934Z,77.17
2018-10-18T11:43:48.210Z,76.23
2018-10-18T11:46:17.480Z,73.42
2018-10-18T11:48:46.813Z,73.43
2018-10-18T11:51:16.102Z,73.92
2018-10-18T11:53:45.493Z,75.39
2018-10-18T11:56:14.868Z,72.52
2018-10-18T11:58:44.251Z,70.54
2018-10-18T12:01:13.654Z,68.74
2018-10-18T12:03:42.949Z,70.99
2018-10-18T12:06:12.205Z,74.19
2018-10-18T12:08:41.542Z,73.21
2018-10-18T12:11:10.863Z,75.79
2018-10-18T12:13:40.145Z,78.07
2018-10-18T12:16:09.422Z,76.83
2018-10-18T12:18:38.762Z,78.94
2018-10-18T12:21:07.991Z,79.26
2018-10-18T12:23:37.514Z,79.10
2018-10-18T12:26:06.851Z,78.09
2018-10-18T12:28:36.098Z,78.02
2018-10-18T12:31:05.522Z,78.59
2018-10-18T12:33:34.746Z,77.84
2018-10-18T12:36:04.182Z,79.51
2018-10-18T12:38:33.441Z,78.13
2018-10-18T12:41:02.766Z,78.77
2018-10-18T12:43:32.006Z,78.04
2018-10-18T12:46:01.300Z,77.85
2018-10-18T12:48:30.667Z,78.36
2018-10-18T12:50:59.925Z,76.99
2018-10-18T12:53:29.239Z,77.84
2018-10-18T12:55:58.591Z,77.01
2018-10-18T12:58:27.854Z,76.33
2018-10-18T13:00:57.225Z,75.96
2018-10-18T13:03:27.606Z,75.71
2018-10-18T13:05:56.896Z,76.62
2018-10-18T13:08:26.458Z,76.15
2018-10-18T13:10:55.773Z,76.11
2018-10-18T13:13:25.037Z,75.68
2018-10-18T13:15:54.417Z,76.46
2018-10-18T13:18:23.677Z,74.70
2018-10-18T13:20:53.037Z,74.56
2018-10-18T13:23:22.306Z,74.52
2018-10-18T13:25:51.810Z,75.62
2018-10-18T13:28:21.186Z,75.14
2018-10-18T13:30:50.421Z,74.94
2018-10-18T13:33:19.821Z,75.04
2018-10-18T13:35:49.107Z,74.21
2018-10-18T13:38:18.367Z,74.85
2018-10-18T13:40:47.720Z,75.36
2018-10-18T13:43:17.276Z,74.29
2018-10-18T13:45:46.565Z,72.58
2018-10-18T13:48:16.008Z,72.07
2018-10-18T13:50:45.194Z,73.50
2018-10-18T13:53:14.579Z,73.01
2018-10-18T13:55:43.902Z,72.80
2018-10-18T13:58:13.179Z,73.76
2018-10-18T14:00:42.570Z,74.16
2018-10-18T14:03:11.910Z,73.84
2018-10-18T14:05:41.271Z,72.98
2018-10-18T14:08:10.578Z,72.76
2018-10-18T14:10:39.792Z,72.72
2018-10-18T14:13:09.065Z,74.02
2018-10-18T14:15:40.354Z,73.37
2018-10-18T14:18:09.611Z,72.68
2018-10-18T14:20:39.972Z,72.82
2018-10-18T14:23:09.390Z,73.10
2018-10-18T14:25:38.576Z,71.94
2018-10-18T14:28:08.018Z,71.28
2018-10-18T14:30:37.287Z,71.85
2018-10-18T14:33:06.826Z,72.78
2018-10-18T14:35:36.103Z,73.10
2018-10-18T14:38:05.445Z,73.19
2018-10-18T14:40:34.747Z,73.42
2018-10-18T14:43:04.198Z,73.57
2018-10-18T14:45:33.510Z,73.38
2018-10-18T14:48:03.853Z,73.90
2018-10-18T14:50:33.288Z,72.91
2018-10-18T14:53:02.601Z,70.97
2018-10-18T14:55:32.632Z,70.50
2018-10-18T14:58:01.939Z,69.27
2018-10-18T15:00:31.242Z,68.36
2018-10-18T15:03:00.607Z,67.76
2018-10-18T15:05:29.900Z,68.91
2018-10-18T15:07:59.190Z,69.01
2018-10-18T15:10:28.504Z,68.04
2018-10-18T15:12:57.929Z,66.40
2018-10-18T15:15:27.399Z,66.00
2018-10-18T15:17:56.758Z,64.26
2018-10-18T15:20:26.047Z,64.35
2018-10-18T15:22:55.336Z,65.01
2018-10-18T15:25:24.902Z,65.60
2018-10-18T15:27:54.099Z,65.44
2018-10-18T15:30:23.362Z,65.89
2018-10-18T15:32:52.700Z,66.04
2018-10-18T15:35:21.975Z,66.09
2018-10-18T15:37:51.349Z,67.19
2018-10-18T15:40:20.631Z,66.98
2018-10-18T15:42:49.865Z,67.31
2018-10-18T15:45:20.738Z,67.71
2018-10-18T15:47:49.983Z,67.32
2018-10-18T15:50:19.238Z,68.13
2018-10-18T15:52:48.567Z,68.01
2018-10-18T15:55:17.866Z,68.52
2018-10-18T15:57:47.139Z,68.92
2018-10-18T16:00:16.718Z,69.06
2018-10-18T16:02:45.892Z,69.01
2018-10-18T16:05:15.236Z,69.47
2018-10-18T16:07:44.567Z,69.78
2018-10-18T16:10:13.873Z,69.46
2018-10-18T16:12:43.403Z,70.65
2018-10-18T16:15:12.695Z,70.70
2018-10-18T16:17:42.155Z,71.38
2018-10-18T16:20:11.588Z,71.26
2018-10-18T16:22:40.834Z,71.58
2018-10-18T16:25:11.381Z,72.77
2018-10-18T16:27:41.450Z,72.06
2018-10-18T16:30:10.885Z,72.33
2018-10-18T16:32:40.183Z,72.34
2018-10-18T16:35:09.753Z,72.32
2018-10-18T16:37:39.246Z,72.31
2018-10-18T16:40:08.551Z,72.45
2018-10-18T16:42:37.844Z,72.43
2018-10-18T16:45:09.365Z,72.70
2018-10-18T16:47:38.714Z,73.17
2018-10-18T16:50:08.461Z,72.89
2018-10-18T16:52:38.185Z,72.74
2018-10-18T16:55:07.719Z,73.21
2018-10-18T16:57:36.953Z,73.82
2018-10-18T17:00:08.027Z,73.91
2018-10-18T17:02:37.360Z,74.17
2018-10-18T17:05:06.679Z,74.23
2018-10-18T17:07:36.070Z,74.37
2018-10-18T17:10:05.882Z,75.05
2018-10-18T17:12:35.189Z,75.30
2018-10-18T17:15:04.952Z,75.01
2018-10-18T17:17:34.510Z,75.50
2018-10-18T17:20:03.896Z,75.59
2018-10-18T17:22:33.135Z,75.30
2018-10-18T17:25:02.589Z,75.48
2018-10-18T17:27:31.967Z,77.19
2018-10-18T17:30:01.271Z,76.32
2018-10-18T17:32:30.546Z,76.60
2018-10-18T17:34:59.791Z,77.00
2018-10-18T17:37:29.107Z,77.78
2018-10-18T17:39:58.379Z,77.15
2018-10-18T17:42:27.637Z,77.62
2018-10-18T17:44:57.111Z,77.14
2018-10-18T17:47:26.310Z,77.63
2018-10-18T17:49:55.670Z,77.43
2018-10-18T17:52:24.973Z,77.74
2018-10-18T17:54:54.210Z,78.26
2018-10-18T17:57:23.487Z,78.47
2018-10-18T17:59:53.092Z,78.71
2018-10-18T18:02:22.540Z,78.55
2018-10-18T18:04:52.494Z,79.25
2018-10-18T18:07:22.311Z,79.01
2018-10-18T18:09:51.566Z,80.85
2018-10-18T18:12:21.936Z,81.58
2018-10-18T18:14:51.278Z,80.23
2018-10-18T18:17:20.590Z,81.19
2018-10-18T18:19:49.853Z,80.99
2018-10-18T18:22:19.177Z,81.45
2018-10-18T18:24:48.415Z,81.50
2018-10-18T18:27:17.643Z,81.93
2018-10-18T18:29:46.962Z,81.48
2018-10-18T18:32:16.245Z,81.94
2018-10-18T18:34:45.498Z,81.67
2018-10-18T18:37:15.159Z,80.83
2018-10-18T18:39:44.460Z,81.37
2018-10-18T18:42:13.743Z,81.24
2018-10-18T18:44:43.029Z,80.99
2018-10-18T18:47:12.380Z,81.01
2018-10-18T18:49:41.646Z,81.29
2018-10-18T18:52:11.029Z,81.62
2018-10-18T18:54:41.494Z,81.55
2018-10-18T18:57:10.792Z,82.40
2018-10-18T18:59:39.997Z,81.97
2018-10-18T19:02:09.248Z,81.90
2018-10-18T19:04:38.605Z,83.00
2018-10-18T19:07:07.858Z,84.63
2018-10-18T19:09:37.084Z,84.49
2018-10-18T19:12:07.427Z,83.98
2018-10-18T19:14:36.653Z,84.55
2018-10-18T19:17:06.431Z,83.75
2018-10-18T19:19:36.830Z,83.79
2018-10-18T19:22:06.625Z,83.35
2018-10-18T19:24:35.921Z,83.42
2018-10-18T19:27:06.085Z,83.83
2018-10-18T19:29:35.361Z,82.77
2018-10-18T19:32:04.986Z,83.95
2018-10-18T19:34:34.241Z,83.73
2018-10-18T19:37:03.586Z,83.66
2018-10-18T19:39:32.829Z,83.88
2018-10-18T19:42:02.145Z,84.18
2018-10-18T19:44:32.442Z,85.31
2018-10-18T19:47:02.841Z,85.23
2018-10-18T19:49:32.074Z,86.16
2018-10-18T19:52:02.486Z,86.33
2018-10-18T19:54:31.726Z,85.57
2018-10-18T19:57:01.011Z,85.90
2018-10-18T19:59:30.390Z,87.31
2018-10-18T20:02:01.501Z,86.96
2018-10-18T20:04:30.852Z,87.01
2018-10-18T20:07:00.183Z,86.79
2018-10-18T20:09:29.510Z,86.80
2018-10-18T20:11:58.806Z,87.15
2018-10-18T20:14:29.768Z,87.29
2018-10-18T20:16:59.014Z,86.81
2018-10-18T20:19:28.310Z,87.88
2018-10-18T20:21:57.688Z,88.18
2018-10-18T20:24:27.003Z,89.45
2018-10-18T20:26:56.263Z,89.07
2018-10-18T20:29:25.608Z,89.32
2018-10-18T20:31:54.862Z,90.46
2018-10-18T20:34:24.157Z,91.54
2018-10-18T20:36:53.512Z,91.41
2018-10-18T20:39:22.869Z,91.24
2018-10-18T20:41:52.174Z,91.68
2018-10-18T20:44:21.979Z,92.29
2018-10-18T20:46:51.476Z,92.84
2018-10-18T20:49:20.607Z,92.30
2018-10-18T20:51:49.923Z,92.73
2018-10-18T20:54:19.297Z,92.24
2018-10-18T20:56:48.635Z,92.45
2018-10-18T20:59:18.074Z,93.39
2018-10-18T21:01:47.313Z,94.20
2018-10-18T21:04:16.535Z,93.39
2018-10-18T21:06:46.031Z,93.44
2018-10-18T21:09:15.217Z,94.54
2018-10-18T21:11:44.407Z,94.94
2018-10-18T21:14:13.762Z,95.26
2018-10-18T21:16:44.137Z,95.13
2018-10-18T21:19:13.333Z,95.81
2018-10-18T21:21:43.734Z,95.21
2018-10-18T21:24:13.014Z,95.47
2018-10-18T21:26:42.379Z,96.40
2018-10-18T21:29:11.745Z,95.96
2018-10-18T21:31:40.932Z,95.44
2018-10-18T21:34:10.411Z,95.75
2018-10-18T21:36:39.698Z,95.28
2018-10-18T21:39:09.059Z,95.17
2018-10-18T21:41:38.282Z,95.31
2018-10-18T21:44:09.620Z,95.78
2018-10-18T21:46:38.881Z,96.14
2018-10-18T21:49:08.130Z,95.52
2018-10-18T21:51:37.415Z,96.19
2018-10-18T21:54:06.666Z,96.43
2018-10-18T21:56:35.926Z,96.54
2018-10-18T21:59:05.363Z,96.10
2018-10-18T22:01:34.530Z,96.14
2018-10-18T22:04:03.962Z,96.24
2018-10-18T22:06:33.372Z,96.54
2018-10-18T22:09:02.678Z,96.59
2018-10-18T22:11:31.951Z,96.99
2018-10-18T22:14:01.422Z,96.78
2018-10-18T22:16:30.616Z,96.45
2018-10-18T22:18:59.819Z,96.88
2018-10-18T22:21:29.119Z,96.29
2018-10-18T22:23:58.370Z,96.53
2018-10-18T22:26:27.720Z,96.37
2018-10-18T22:28:57.026Z,96.18
2018-10-18T22:31:26.481Z,96.00
2018-10-18T22:33:56.001Z,96.30
2018-10-18T22:36:25.694Z,97.13
2018-10-18T22:38:55.063Z,96.82
2018-10-18T22:41:24.339Z,96.45
2018-10-18T22:43:53.562Z,96.81
2018-10-18T22:46:22.799Z,97.66
2018-10-18T22:48:52.015Z,97.35
2018-10-18T22:51:22.422Z,97.63
2018-10-18T22:53:51.790Z,98.03
2018-10-18T22:56:21.067Z,98.06
2018-10-18T22:58:50.509Z,98.42
2018-10-18T23:01:19.832Z,98.68
2018-10-18T23:03:49.254Z,98.79
2018-10-18T23:06:19.600Z,98.54
2018-10-18T23:08:48.874Z,98.54
2018-10-18T23:11:18.283Z,98.50
2018-10-18T23:13:47.480Z,98.94
2018-10-18T23:16:16.799Z,99.09
2018-10-18T23:18:47.128Z,99.46
2018-10-18T23:21:17.453Z,99.55
2018-10-18T23:23:46.738Z,99.81
2018-10-18T23:26:15.970Z,100.00
2018-10-18T23:28:45.264Z,100.00
2018-10-18T23:31:14.496Z,100.00
2018-10-18T23:33:43.826Z,100.00
2018-10-18T23:36:13.153Z,100.00
2018-10-18T23:38:42.370Z,100.00
2018-10-18T23:41:11.661Z,100.00
2018-10-18T23:43:40.906Z,100.00
2018-10-18T23:46:10.090Z,100.00
2018-10-18T23:48:39.333Z,100.00
2018-10-18T23:51:08.627Z,100.00
2018-10-18T23:53:37.833Z,100.00
2018-10-18T23:56:07.059Z,100.00
2018-10-18T23:58:36.276Z,100.00
